createdAt,value
2022-09-25T00:00:14.406Z,4.57
2022-09-25T00:05:13.433Z,4.20
2022-09-25T00:10:12.369Z,9.65
2022-09-25T00:15:12.882Z,11.10
2022-09-25T00:20:25.317Z,11.57
2022-09-25T00:25:27.555Z,12.05
2022-09-25T00:30:27.141Z,10.10
2022-09-25T00:35:27.059Z,8.20
2022-09-25T00:40:28.645Z,5.00
2022-09-25T00:45:30.565Z,4.25
2022-09-25T00:50:45.026Z,3.13
2022-09-25T00:55:45.808Z,3.03
2022-09-25T01:00:47.742Z,2.63
2022-09-25T01:05:46.051Z,2.45
2022-09-25T01:10:54.527Z,2.65
2022-09-25T01:16:08.464Z,3.00
2022-09-25T01:21:34.414Z,4.00
2022-09-25T01:26:59.761Z,3.67
2022-09-25T01:32:04.693Z,3.45
2022-09-25T01:37:10.051Z,4.35
2022-09-25T01:42:21.003Z,6.43
2022-09-25T01:47:25.748Z,8.40
2022-09-25T01:52:31.225Z,7.18
2022-09-25T01:57:39.224Z,8.23
2022-09-25T02:02:58.363Z,5.63
2022-09-25T02:08:04.175Z,5.65
2022-09-25T02:13:09.068Z,6.82
2022-09-25T02:18:30.260Z,5.75
2022-09-25T02:23:39.998Z,5.35
2022-09-25T02:28:37.539Z,6.50
2022-09-25T02:33:38.450Z,7.28
2022-09-25T02:38:37.693Z,7.00
2022-09-25T02:43:41.786Z,6.15
2022-09-25T02:53:44.032Z,4.68
2022-09-25T02:58:55.841Z,3.78
2022-09-25T03:03:56.940Z,5.13
2022-09-25T03:08:57.048Z,4.28
2022-09-25T03:14:00.427Z,4.85
2022-09-25T03:18:58.887Z,4.78
2022-09-25T03:23:58.273Z,3.53
2022-09-25T03:29:02.626Z,4.55
2022-09-25T03:34:01.675Z,3.95
2022-09-25T03:39:03.594Z,4.93
2022-09-25T03:44:04.459Z,5.57
2022-09-25T03:49:04.482Z,4.72
2022-09-25T03:54:04.377Z,4.03
2022-09-25T03:59:04.609Z,4.45
2022-09-25T04:04:05.735Z,4.25
2022-09-25T04:09:05.186Z,5.03
2022-09-25T04:14:04.203Z,5.07
2022-09-25T04:19:02.568Z,5.38
2022-09-25T04:24:21.740Z,4.32
2022-09-25T04:29:21.421Z,4.38
2022-09-25T04:34:20.458Z,4.43
2022-09-25T04:39:21.342Z,4.78
2022-09-25T04:44:20.903Z,4.50
2022-09-25T04:49:19.286Z,4.63
2022-09-25T04:54:17.844Z,5.13
2022-09-25T04:59:18.614Z,5.28
2022-09-25T05:04:17.141Z,5.47
2022-09-25T05:09:17.091Z,6.00
2022-09-25T05:14:15.559Z,6.15
2022-09-25T05:19:14.861Z,7.00
2022-09-25T05:24:13.950Z,6.68
2022-09-25T05:29:13.864Z,6.70
2022-09-25T05:34:12.689Z,7.72
2022-09-25T05:39:14.654Z,7.00
2022-09-25T05:44:13.341Z,6.55
2022-09-25T05:49:12.076Z,6.97
2022-09-25T05:54:11.565Z,7.13
2022-09-25T05:59:09.612Z,6.90
2022-09-25T06:04:08.398Z,7.05
2022-09-25T06:09:08.185Z,6.60
2022-09-25T06:14:08.127Z,7.10
2022-09-25T06:19:06.497Z,7.88
2022-09-25T06:24:04.745Z,7.40
2022-09-25T06:29:04.722Z,7.13
2022-09-25T06:34:04.611Z,7.72
2022-09-25T06:39:06.318Z,7.00
2022-09-25T06:44:05.072Z,6.82
2022-09-25T06:49:03.564Z,6.72
2022-09-25T06:54:02.095Z,5.90
2022-09-25T06:59:01.800Z,8.10
2022-09-25T07:04:00.127Z,6.20
2022-09-25T07:08:58.642Z,5.68
2022-09-25T07:13:57.486Z,5.25
2022-09-25T07:18:59.784Z,76.90
2022-09-25T07:23:59.097Z,11.27
2022-09-25T07:29:04.553Z,5.78
2022-09-25T07:34:09.822Z,6.10
2022-09-25T07:39:07.773Z,6.13
2022-09-25T07:49:29.138Z,4.03
2022-09-25T07:54:30.430Z,3.50
2022-09-25T07:59:28.621Z,4.07
2022-09-25T08:04:26.222Z,3.72
2022-09-25T08:09:24.118Z,3.47
2022-09-25T08:14:26.623Z,3.03
2022-09-25T08:19:27.401Z,2.90
2022-09-25T08:24:25.251Z,2.75
2022-09-25T08:29:23.345Z,3.17
2022-09-25T08:34:40.055Z,2.22
2022-09-25T08:39:40.956Z,2.45
2022-09-25T08:45:21.414Z,2.17
2022-09-25T08:50:32.811Z,1.80
2022-09-25T08:56:01.774Z,2.22
2022-09-25T09:01:07.229Z,3.10
2022-09-25T09:06:12.672Z,1.77
2022-09-25T09:11:21.259Z,1.77
2022-09-25T09:16:28.363Z,1.55
2022-09-25T09:21:33.297Z,1.73
2022-09-25T09:26:57.738Z,2.13
2022-09-25T09:32:12.690Z,1.80
2022-09-25T09:37:17.723Z,1.65
2022-09-25T09:42:29.344Z,1.63
2022-09-25T09:47:46.943Z,1.90
2022-09-25T09:52:48.450Z,1.80
2022-09-25T09:57:52.824Z,2.15
2022-09-25T10:03:06.317Z,2.45
2022-09-25T10:08:04.898Z,2.03
2022-09-25T10:13:06.931Z,2.40
2022-09-25T10:18:05.278Z,2.50
2022-09-25T10:23:05.376Z,1.95
2022-09-25T10:28:28.231Z,2.35
2022-09-25T10:33:29.550Z,1.67
2022-09-25T10:38:49.964Z,1.63
2022-09-25T10:43:53.590Z,1.60
2022-09-25T10:49:31.562Z,2.10
2022-09-25T10:54:30.210Z,1.60
2022-09-25T10:59:28.503Z,1.65
2022-09-25T11:04:34.832Z,3.35
2022-09-25T11:09:34.196Z,2.38
2022-09-25T11:14:36.398Z,1.77
2022-09-25T11:19:38.629Z,1.50
2022-09-25T11:24:48.075Z,1.73
2022-09-25T11:30:26.325Z,1.83
2022-09-25T11:35:35.545Z,1.77
2022-09-25T11:41:07.582Z,1.50
2022-09-25T11:46:54.125Z,1.60
2022-09-25T11:52:07.195Z,1.48
2022-09-25T11:57:14.946Z,1.23
2022-09-25T12:02:41.236Z,1.40
2022-09-25T12:07:52.423Z,1.83
2022-09-25T12:12:54.171Z,1.52
2022-09-25T12:18:02.392Z,2.00
2022-09-25T12:23:09.197Z,1.65
2022-09-25T12:28:41.066Z,1.60
2022-09-25T12:33:55.078Z,1.60
2022-09-25T12:39:09.484Z,2.95
2022-09-25T12:44:44.287Z,1.50
2022-09-25T12:49:52.026Z,1.67
2022-09-25T12:55:19.049Z,1.70
2022-09-25T13:00:21.466Z,1.30
2022-09-25T13:05:23.658Z,1.30
2022-09-25T13:10:47.729Z,1.30
2022-09-25T13:15:49.290Z,2.03
2022-09-25T13:20:51.687Z,1.45
2022-09-25T13:26:01.918Z,1.70
2022-09-25T13:31:13.106Z,1.38
2022-09-25T13:36:23.807Z,1.92
2022-09-25T13:41:21.270Z,1.70
2022-09-25T13:46:21.677Z,1.48
2022-09-25T13:51:22.142Z,1.05
2022-09-25T13:56:24.767Z,1.60
2022-09-25T14:01:42.556Z,1.30
2022-09-25T14:06:42.771Z,1.67
2022-09-25T14:11:42.984Z,1.52
2022-09-25T14:16:48.944Z,1.65
2022-09-25T14:21:48.836Z,1.50
2022-09-25T14:26:47.317Z,2.20
2022-09-25T14:32:53.881Z,2.90
2022-09-25T14:38:02.841Z,4.10
2022-09-25T14:43:30.452Z,4.88
2022-09-25T14:48:45.619Z,1.73
2022-09-25T14:54:04.843Z,1.58
2022-09-25T14:59:13.182Z,1.55
2022-09-25T15:04:11.702Z,1.73
2022-09-25T15:09:30.466Z,1.40
2022-09-25T15:14:29.114Z,1.50
2022-09-25T15:19:35.324Z,2.28
2022-09-25T15:24:34.678Z,2.47
2022-09-25T15:29:37.213Z,2.10
2022-09-25T15:34:34.751Z,2.45
2022-09-25T15:39:41.072Z,2.03
2022-09-25T15:44:39.337Z,2.40
2022-09-25T15:49:41.135Z,2.25
2022-09-25T15:54:44.507Z,2.67
2022-09-25T16:00:06.510Z,2.38
2022-09-25T16:05:09.465Z,2.33
2022-09-25T16:10:10.193Z,7.47
2022-09-25T16:15:30.200Z,5.63
2022-09-25T16:20:38.393Z,4.70
2022-09-25T16:25:38.126Z,3.75
2022-09-25T16:30:36.356Z,6.43
2022-09-25T16:36:08.141Z,8.32
2022-09-25T16:41:18.210Z,15.35
2022-09-25T16:46:18.385Z,23.55
2022-09-25T16:51:22.208Z,18.20
2022-09-25T17:01:23.496Z,20.38
2022-09-25T17:06:23.018Z,25.60
2022-09-25T17:11:21.642Z,39.17
2022-09-25T17:16:22.069Z,40.40
2022-09-25T17:21:22.347Z,36.75
2022-09-25T17:26:24.269Z,33.10
2022-09-25T17:31:23.850Z,29.08
2022-09-25T17:36:25.147Z,24.48
2022-09-25T17:41:36.332Z,24.00
2022-09-25T17:46:34.758Z,24.20
2022-09-25T17:51:34.133Z,24.65
2022-09-25T17:56:34.965Z,22.58
2022-09-25T18:01:38.329Z,20.83
2022-09-25T18:06:39.022Z,18.77
2022-09-25T18:11:43.593Z,15.40
2022-09-25T18:16:43.144Z,15.98
2022-09-25T18:22:00.587Z,15.73
2022-09-25T18:27:00.489Z,15.48
2022-09-25T18:31:59.884Z,13.60
2022-09-25T18:37:00.624Z,13.35
2022-09-25T18:41:58.890Z,9.55
2022-09-25T18:46:58.418Z,11.45
2022-09-25T18:51:58.482Z,8.77
2022-09-25T18:56:59.613Z,9.85
2022-09-25T19:02:01.213Z,10.70
2022-09-25T19:06:59.995Z,11.23
2022-09-25T19:12:00.836Z,9.20
2022-09-25T19:17:00.071Z,8.57
2022-09-25T19:21:59.803Z,7.60
2022-09-25T19:26:57.810Z,8.05
2022-09-25T19:31:56.654Z,6.07
2022-09-25T19:36:57.684Z,6.75
2022-09-25T19:41:56.707Z,6.00
2022-09-25T19:46:57.328Z,5.55
2022-09-25T19:51:55.702Z,5.03
2022-09-25T19:56:54.455Z,3.20
2022-09-25T20:01:53.727Z,4.10
2022-09-25T20:07:02.910Z,4.43
2022-09-25T20:12:04.226Z,4.15
2022-09-25T20:17:05.294Z,3.97
2022-09-25T20:22:08.552Z,3.72
2022-09-25T20:27:07.877Z,3.22
2022-09-25T20:32:06.156Z,3.72
2022-09-25T20:37:05.052Z,3.80
2022-09-25T20:42:04.888Z,4.03
2022-09-25T20:47:03.411Z,3.72
2022-09-25T20:52:05.518Z,4.00
2022-09-25T20:57:04.415Z,3.53
2022-09-25T21:02:05.344Z,3.67
2022-09-25T21:07:04.397Z,3.50
2022-09-25T21:12:06.057Z,3.20
2022-09-25T21:17:09.613Z,3.95
2022-09-25T21:22:08.290Z,3.58
2022-09-25T21:27:06.944Z,3.45
2022-09-25T21:32:07.177Z,3.00
2022-09-25T21:37:05.512Z,3.15
2022-09-25T21:42:05.795Z,3.03
2022-09-25T21:47:08.133Z,2.72
2022-09-25T21:52:06.702Z,3.17
2022-09-25T21:57:05.164Z,2.47
2022-09-25T22:02:02.898Z,2.70
2022-09-25T22:07:04.858Z,3.17
2022-09-25T22:12:06.455Z,2.80
2022-09-25T22:17:08.168Z,2.85
2022-09-25T22:22:06.792Z,2.60
2022-09-25T22:27:06.392Z,3.15
2022-09-25T22:32:08.922Z,3.00
2022-09-25T22:37:07.941Z,3.17
2022-09-25T22:42:07.108Z,2.67
2022-09-25T22:47:08.827Z,2.40
2022-09-25T22:52:08.274Z,2.70
2022-09-25T22:57:08.772Z,2.33
2022-09-25T23:02:07.794Z,3.10
2022-09-25T23:07:06.961Z,2.88
2022-09-25T23:12:05.876Z,2.15
2022-09-25T23:17:06.433Z,2.47
2022-09-25T23:22:08.557Z,2.55
2022-09-25T23:27:07.688Z,2.30
2022-09-25T23:32:10.603Z,2.42
2022-09-25T23:37:13.944Z,3.35
2022-09-25T23:42:16.384Z,3.53
2022-09-25T23:47:15.141Z,3.05
2022-09-25T23:52:13.234Z,3.05
2022-09-25T23:57:14.597Z,3.28
